Bellingham, Minnesota
Current Conditions -  °F | °C
As of 6:53 PM on Friday 24 Oct 2014 (Local Time) from KDXX Reporting Station
Clear Clear  
Wind Chill: 68°   Ceiling: Unl
Heat Index: 68°   Visibility: 10mi
Dew Point: 37°   Wind: 6mph
Humidity: 33%   Direction: 260°W
Pressure: 29.89"   Gusts: NA
Location:  45.14°N, 96.29°W
Report Text: KDXX 242353Z AUTO 26005KT 10SM CLR 20/03 A2989 RMK AO2
Loading
Personal Weather Stations






























Interactive Weather Map
Tropical Storm Tracking
New forecast layout! Learn more

10-Day Weather Forecast

Advertisements
Track Severe Weather on mobile